sensor_id;sensor_type;location;lat;lon;timestamp;P1;durP1;ratioP1;P2;durP2;ratioP2
10985;SDS011;5546;48.714;8.738;2022-08-03T00:01:25;3.73;;;3.40;;
10985;SDS011;5546;48.714;8.738;2022-08-03T00:03:51;4.00;;;3.60;;
10985;SDS011;5546;48.714;8.738;2022-08-03T00:06:16;3.90;;;3.50;;
10985;SDS011;5546;48.714;8.738;2022-08-03T00:08:42;3.90;;;3.50;;
10985;SDS011;5546;48.714;8.738;2022-08-03T00:11:08;3.97;;;3.25;;
10985;SDS011;5546;48.714;8.738;2022-08-03T00:13:34;4.10;;;3.67;;
10985;SDS011;5546;48.714;8.738;2022-08-03T00:15:59;3.87;;;3.30;;
10985;SDS011;5546;48.714;8.738;2022-08-03T00:18:25;3.80;;;3.50;;
10985;SDS011;5546;48.714;8.738;2022-08-03T00:20:50;4.63;;;4.23;;
10985;SDS011;5546;48.714;8.738;2022-08-03T00:23:16;4.70;;;3.70;;
10985;SDS011;5546;48.714;8.738;2022-08-03T00:25:42;3.77;;;3.47;;
10985;SDS011;5546;48.714;8.738;2022-08-03T00:28:07;4.17;;;3.83;;
10985;SDS011;5546;48.714;8.738;2022-08-03T00:30:33;4.03;;;3.63;;
10985;SDS011;5546;48.714;8.738;2022-08-03T00:33:00;4.10;;;3.70;;
10985;SDS011;5546;48.714;8.738;2022-08-03T00:35:26;3.93;;;3.63;;
10985;SDS011;5546;48.714;8.738;2022-08-03T00:37:52;4.97;;;3.80;;
10985;SDS011;5546;48.714;8.738;2022-08-03T00:40:18;5.80;;;3.53;;
10985;SDS011;5546;48.714;8.738;2022-08-03T00:42:51;4.10;;;3.80;;
10985;SDS011;5546;48.714;8.738;2022-08-03T00:45:18;4.37;;;3.97;;
10985;SDS011;5546;48.714;8.738;2022-08-03T00:47:45;4.67;;;3.70;;
10985;SDS011;5546;48.714;8.738;2022-08-03T00:50:11;3.90;;;3.60;;
10985;SDS011;5546;48.714;8.738;2022-08-03T00:52:37;3.77;;;3.47;;
10985;SDS011;5546;48.714;8.738;2022-08-03T00:55:03;4.40;;;4.00;;
10985;SDS011;5546;48.714;8.738;2022-08-03T00:57:30;4.30;;;3.90;;
10985;SDS011;5546;48.714;8.738;2022-08-03T00:59:56;4.50;;;4.03;;
10985;SDS011;5546;48.714;8.738;2022-08-03T01:02:24;4.17;;;3.67;;
10985;SDS011;5546;48.714;8.738;2022-08-03T01:04:50;4.23;;;3.83;;
10985;SDS011;5546;48.714;8.738;2022-08-03T01:07:16;4.03;;;3.70;;
10985;SDS011;5546;48.714;8.738;2022-08-03T01:12:30;5.17;;;3.80;;
10985;SDS011;5546;48.714;8.738;2022-08-03T01:15:14;6.47;;;4.10;;
10985;SDS011;5546;48.714;8.738;2022-08-03T01:18:05;4.20;;;3.83;;
10985;SDS011;5546;48.714;8.738;2022-08-03T01:20:36;5.03;;;3.80;;
10985;SDS011;5546;48.714;8.738;2022-08-03T01:25:58;4.10;;;3.80;;
10985;SDS011;5546;48.714;8.738;2022-08-03T01:28:41;4.53;;;4.10;;
10985;SDS011;5546;48.714;8.738;2022-08-03T01:31:28;5.00;;;4.50;;
10985;SDS011;5546;48.714;8.738;2022-08-03T01:34:08;4.90;;;4.00;;
10985;SDS011;5546;48.714;8.738;2022-08-03T01:36:39;4.40;;;4.00;;
10985;SDS011;5546;48.714;8.738;2022-08-03T01:39:10;4.20;;;3.80;;
10985;SDS011;5546;48.714;8.738;2022-08-03T01:41:41;4.40;;;4.00;;
10985;SDS011;5546;48.714;8.738;2022-08-03T01:44:13;4.40;;;4.00;;
10985;SDS011;5546;48.714;8.738;2022-08-03T01:46:39;4.20;;;3.90;;
10985;SDS011;5546;48.714;8.738;2022-08-03T01:49:08;4.43;;;3.77;;
10985;SDS011;5546;48.714;8.738;2022-08-03T01:51:37;4.97;;;4.17;;
10985;SDS011;5546;48.714;8.738;2022-08-03T01:54:05;6.70;;;4.30;;
10985;SDS011;5546;48.714;8.738;2022-08-03T01:56:33;7.60;;;3.90;;
10985;SDS011;5546;48.714;8.738;2022-08-03T01:59:00;4.37;;;3.93;;
10985;SDS011;5546;48.714;8.738;2022-08-03T02:01:27;4.30;;;3.90;;
10985;SDS011;5546;48.714;8.738;2022-08-03T02:03:53;4.50;;;4.10;;
10985;SDS011;5546;48.714;8.738;2022-08-03T02:06:23;5.27;;;4.10;;
10985;SDS011;5546;48.714;8.738;2022-08-03T02:08:51;4.27;;;3.87;;
10985;SDS011;5546;48.714;8.738;2022-08-03T02:11:19;4.83;;;4.30;;
10985;SDS011;5546;48.714;8.738;2022-08-03T02:13:45;4.47;;;4.07;;
10985;SDS011;5546;48.714;8.738;2022-08-03T02:16:11;4.20;;;3.90;;
10985;SDS011;5546;48.714;8.738;2022-08-03T02:18:38;5.20;;;4.20;;
10985;SDS011;5546;48.714;8.738;2022-08-03T02:21:06;4.27;;;3.87;;
10985;SDS011;5546;48.714;8.738;2022-08-03T02:23:34;4.50;;;4.10;;
10985;SDS011;5546;48.714;8.738;2022-08-03T02:26:01;4.50;;;4.10;;
10985;SDS011;5546;48.714;8.738;2022-08-03T02:28:30;4.20;;;3.80;;
10985;SDS011;5546;48.714;8.738;2022-08-03T02:31:00;4.47;;;4.07;;
10985;SDS011;5546;48.714;8.738;2022-08-03T02:33:32;4.67;;;3.87;;
10985;SDS011;5546;48.714;8.738;2022-08-03T02:36:01;4.00;;;3.70;;
10985;SDS011;5546;48.714;8.738;2022-08-03T02:38:30;4.40;;;4.00;;
10985;SDS011;5546;48.714;8.738;2022-08-03T02:40:58;4.20;;;3.90;;
10985;SDS011;5546;48.714;8.738;2022-08-03T02:43:26;5.07;;;4.17;;
10985;SDS011;5546;48.714;8.738;2022-08-03T02:45:54;4.23;;;3.93;;
10985;SDS011;5546;48.714;8.738;2022-08-03T02:48:20;5.33;;;4.27;;
10985;SDS011;5546;48.714;8.738;2022-08-03T02:50:50;4.70;;;4.30;;
10985;SDS011;5546;48.714;8.738;2022-08-03T02:53:18;4.10;;;3.80;;
10985;SDS011;5546;48.714;8.738;2022-08-03T02:55:45;4.40;;;4.00;;
10985;SDS011;5546;48.714;8.738;2022-08-03T02:58:12;4.70;;;4.30;;
10985;SDS011;5546;48.714;8.738;2022-08-03T03:00:40;4.90;;;4.50;;
10985;SDS011;5546;48.714;8.738;2022-08-03T03:03:08;5.53;;;4.37;;
10985;SDS011;5546;48.714;8.738;2022-08-03T03:05:34;4.83;;;4.23;;
10985;SDS011;5546;48.714;8.738;2022-08-03T03:08:02;5.60;;;5.03;;
10985;SDS011;5546;48.714;8.738;2022-08-03T03:10:28;4.70;;;4.20;;
10985;SDS011;5546;48.714;8.738;2022-08-03T03:12:54;5.70;;;4.00;;
10985;SDS011;5546;48.714;8.738;2022-08-03T03:15:25;4.23;;;3.67;;
10985;SDS011;5546;48.714;8.738;2022-08-03T03:17:51;4.67;;;4.27;;
10985;SDS011;5546;48.714;8.738;2022-08-03T03:20:17;4.57;;;4.17;;
10985;SDS011;5546;48.714;8.738;2022-08-03T03:22:45;5.70;;;4.20;;
10985;SDS011;5546;48.714;8.738;2022-08-03T03:25:12;4.30;;;3.90;;
10985;SDS011;5546;48.714;8.738;2022-08-03T03:27:38;5.43;;;4.10;;
10985;SDS011;5546;48.714;8.738;2022-08-03T03:30:04;4.10;;;3.80;;
10985;SDS011;5546;48.714;8.738;2022-08-03T03:32:30;5.20;;;4.23;;
10985;SDS011;5546;48.714;8.738;2022-08-03T03:34:56;4.43;;;4.00;;
10985;SDS011;5546;48.714;8.738;2022-08-03T03:37:23;4.57;;;4.17;;
10985;SDS011;5546;48.714;8.738;2022-08-03T03:39:50;4.53;;;3.90;;
10985;SDS011;5546;48.714;8.738;2022-08-03T03:42:16;4.80;;;4.10;;
10985;SDS011;5546;48.714;8.738;2022-08-03T03:44:42;4.30;;;3.90;;
10985;SDS011;5546;48.714;8.738;2022-08-03T03:47:07;4.57;;;4.20;;
10985;SDS011;5546;48.714;8.738;2022-08-03T03:49:33;4.70;;;3.93;;
10985;SDS011;5546;48.714;8.738;2022-08-03T03:52:00;4.43;;;4.03;;
10985;SDS011;5546;48.714;8.738;2022-08-03T03:54:26;4.60;;;4.20;;
10985;SDS011;5546;48.714;8.738;2022-08-03T03:57:06;4.70;;;4.20;;
10985;SDS011;5546;48.714;8.738;2022-08-03T03:59:36;5.00;;;4.40;;
10985;SDS011;5546;48.714;8.738;2022-08-03T04:02:03;6.60;;;4.50;;
10985;SDS011;5546;48.714;8.738;2022-08-03T04:04:30;4.30;;;3.90;;
10985;SDS011;5546;48.714;8.738;2022-08-03T04:07:16;4.70;;;4.30;;
10985;SDS011;5546;48.714;8.738;2022-08-03T04:10:01;5.90;;;4.03;;
10985;SDS011;5546;48.714;8.738;2022-08-03T04:12:47;5.03;;;4.23;;
10985;SDS011;5546;48.714;8.738;2022-08-03T04:15:15;4.20;;;3.90;;
10985;SDS011;5546;48.714;8.738;2022-08-03T04:17:43;4.37;;;3.97;;
10985;SDS011;5546;48.714;8.738;2022-08-03T04:20:10;5.00;;;4.20;;
10985;SDS011;5546;48.714;8.738;2022-08-03T04:22:37;4.80;;;4.40;;
10985;SDS011;5546;48.714;8.738;2022-08-03T04:25:04;5.00;;;4.27;;
10985;SDS011;5546;48.714;8.738;2022-08-03T04:27:35;6.70;;;4.47;;
10985;SDS011;5546;48.714;8.738;2022-08-03T04:30:04;4.40;;;4.00;;
10985;SDS011;5546;48.714;8.738;2022-08-03T04:32:30;4.50;;;4.10;;
10985;SDS011;5546;48.714;8.738;2022-08-03T04:34:56;4.43;;;4.03;;
10985;SDS011;5546;48.714;8.738;2022-08-03T04:37:30;6.00;;;4.53;;
10985;SDS011;5546;48.714;8.738;2022-08-03T04:40:02;7.70;;;4.00;;
10985;SDS011;5546;48.714;8.738;2022-08-03T04:42:42;4.50;;;4.10;;
10985;SDS011;5546;48.714;8.738;2022-08-03T04:45:12;5.13;;;4.53;;
10985;SDS011;5546;48.714;8.738;2022-08-03T04:47:39;5.27;;;4.77;;
10985;SDS011;5546;48.714;8.738;2022-08-03T04:50:05;4.97;;;4.57;;
10985;SDS011;5546;48.714;8.738;2022-08-03T04:52:32;5.20;;;4.80;;
10985;SDS011;5546;48.714;8.738;2022-08-03T04:54:59;5.43;;;4.93;;
10985;SDS011;5546;48.714;8.738;2022-08-03T04:57:25;6.33;;;4.87;;
10985;SDS011;5546;48.714;8.738;2022-08-03T04:59:51;6.10;;;4.33;;
10985;SDS011;5546;48.714;8.738;2022-08-03T05:02:18;4.90;;;4.50;;
10985;SDS011;5546;48.714;8.738;2022-08-03T05:04:47;4.90;;;4.50;;
10985;SDS011;5546;48.714;8.738;2022-08-03T05:07:13;4.60;;;4.20;;
10985;SDS011;5546;48.714;8.738;2022-08-03T05:09:40;5.10;;;4.70;;
10985;SDS011;5546;48.714;8.738;2022-08-03T05:12:05;4.20;;;3.90;;
10985;SDS011;5546;48.714;8.738;2022-08-03T05:14:31;4.07;;;3.77;;
10985;SDS011;5546;48.714;8.738;2022-08-03T05:16:57;5.27;;;3.47;;
10985;SDS011;5546;48.714;8.738;2022-08-03T05:19:23;4.17;;;3.77;;
10985;SDS011;5546;48.714;8.738;2022-08-03T05:21:49;4.07;;;3.67;;
10985;SDS011;5546;48.714;8.738;2022-08-03T05:24:15;4.20;;;3.80;;
10985;SDS011;5546;48.714;8.738;2022-08-03T05:26:41;3.88;;;3.58;;
10985;SDS011;5546;48.714;8.738;2022-08-03T05:29:06;3.97;;;3.67;;
10985;SDS011;5546;48.714;8.738;2022-08-03T05:31:32;3.60;;;3.28;;
10985;SDS011;5546;48.714;8.738;2022-08-03T05:33:58;3.45;;;3.25;;
10985;SDS011;5546;48.714;8.738;2022-08-03T05:36:23;3.65;;;3.35;;
10985;SDS011;5546;48.714;8.738;2022-08-03T05:38:49;4.03;;;3.72;;
10985;SDS011;5546;48.714;8.738;2022-08-03T05:41:15;3.95;;;3.60;;
10985;SDS011;5546;48.714;8.738;2022-08-03T05:43:40;3.67;;;3.35;;
10985;SDS011;5546;48.714;8.738;2022-08-03T05:46:06;4.00;;;3.60;;
10985;SDS011;5546;48.714;8.738;2022-08-03T05:48:32;3.80;;;3.50;;
10985;SDS011;5546;48.714;8.738;2022-08-03T05:50:57;5.05;;;3.17;;
10985;SDS011;5546;48.714;8.738;2022-08-03T05:53:23;4.88;;;3.50;;
10985;SDS011;5546;48.714;8.738;2022-08-03T05:55:48;4.05;;;3.65;;
10985;SDS011;5546;48.714;8.738;2022-08-03T05:58:14;3.75;;;3.40;;
10985;SDS011;5546;48.714;8.738;2022-08-03T06:00:39;3.15;;;2.95;;
10985;SDS011;5546;48.714;8.738;2022-08-03T06:03:05;3.80;;;3.50;;
10985;SDS011;5546;48.714;8.738;2022-08-03T06:05:30;3.47;;;3.17;;
10985;SDS011;5546;48.714;8.738;2022-08-03T06:08:00;3.60;;;3.28;;
10985;SDS011;5546;48.714;8.738;2022-08-03T06:10:26;4.00;;;3.40;;
10985;SDS011;5546;48.714;8.738;2022-08-03T06:12:52;4.05;;;3.75;;
10985;SDS011;5546;48.714;8.738;2022-08-03T06:15:17;3.50;;;3.20;;
10985;SDS011;5546;48.714;8.738;2022-08-03T06:17:52;3.60;;;3.30;;
10985;SDS011;5546;48.714;8.738;2022-08-03T06:20:18;3.60;;;3.30;;
10985;SDS011;5546;48.714;8.738;2022-08-03T06:22:45;3.50;;;3.20;;
10985;SDS011;5546;48.714;8.738;2022-08-03T06:25:11;4.13;;;3.50;;
10985;SDS011;5546;48.714;8.738;2022-08-03T06:27:36;4.22;;;3.28;;
10985;SDS011;5546;48.714;8.738;2022-08-03T06:30:04;3.67;;;3.22;;
10985;SDS011;5546;48.714;8.738;2022-08-03T06:32:35;3.60;;;3.30;;
10985;SDS011;5546;48.714;8.738;2022-08-03T06:35:07;4.53;;;3.15;;
10985;SDS011;5546;48.714;8.738;2022-08-03T06:37:46;3.45;;;3.13;;
10985;SDS011;5546;48.714;8.738;2022-08-03T06:40:14;5.65;;;3.30;;
10985;SDS011;5546;48.714;8.738;2022-08-03T06:42:41;8.75;;;3.33;;
10985;SDS011;5546;48.714;8.738;2022-08-03T06:45:08;3.47;;;2.90;;
10985;SDS011;5546;48.714;8.738;2022-08-03T06:47:35;4.45;;;3.30;;
10985;SDS011;5546;48.714;8.738;2022-08-03T06:50:03;4.65;;;2.90;;
10985;SDS011;5546;48.714;8.738;2022-08-03T06:52:33;3.65;;;3.05;;
10985;SDS011;5546;48.714;8.738;2022-08-03T06:54:58;3.55;;;3.10;;
10985;SDS011;5546;48.714;8.738;2022-08-03T06:57:24;3.38;;;2.90;;
10985;SDS011;5546;48.714;8.738;2022-08-03T06:59:49;5.72;;;3.17;;
10985;SDS011;5546;48.714;8.738;2022-08-03T07:02:15;4.47;;;3.30;;
10985;SDS011;5546;48.714;8.738;2022-08-03T07:04:42;4.30;;;3.05;;
10985;SDS011;5546;48.714;8.738;2022-08-03T07:07:08;3.35;;;3.00;;
10985;SDS011;5546;48.714;8.738;2022-08-03T07:09:34;3.83;;;3.40;;
10985;SDS011;5546;48.714;8.738;2022-08-03T07:12:00;3.88;;;3.03;;
10985;SDS011;5546;48.714;8.738;2022-08-03T07:14:26;4.45;;;3.25;;
10985;SDS011;5546;48.714;8.738;2022-08-03T07:16:52;3.40;;;3.08;;
10985;SDS011;5546;48.714;8.738;2022-08-03T07:19:17;3.33;;;3.00;;
10985;SDS011;5546;48.714;8.738;2022-08-03T07:21:43;4.20;;;3.13;;
10985;SDS011;5546;48.714;8.738;2022-08-03T07:24:09;3.42;;;3.13;;
10985;SDS011;5546;48.714;8.738;2022-08-03T07:26:35;3.40;;;3.10;;
10985;SDS011;5546;48.714;8.738;2022-08-03T07:29:01;5.88;;;3.00;;
10985;SDS011;5546;48.714;8.738;2022-08-03T07:31:26;4.47;;;3.00;;
10985;SDS011;5546;48.714;8.738;2022-08-03T07:33:52;5.93;;;3.15;;
10985;SDS011;5546;48.714;8.738;2022-08-03T07:36:17;3.40;;;3.10;;
10985;SDS011;5546;48.714;8.738;2022-08-03T07:38:43;3.75;;;3.38;;
10985;SDS011;5546;48.714;8.738;2022-08-03T07:41:08;5.40;;;3.08;;
10985;SDS011;5546;48.714;8.738;2022-08-03T07:43:34;4.65;;;3.00;;
10985;SDS011;5546;48.714;8.738;2022-08-03T07:45:59;3.83;;;2.80;;
10985;SDS011;5546;48.714;8.738;2022-08-03T07:48:25;6.93;;;2.88;;
10985;SDS011;5546;48.714;8.738;2022-08-03T07:50:50;4.35;;;2.80;;
10985;SDS011;5546;48.714;8.738;2022-08-03T07:53:16;2.95;;;2.63;;
10985;SDS011;5546;48.714;8.738;2022-08-03T07:55:42;2.97;;;2.60;;
10985;SDS011;5546;48.714;8.738;2022-08-03T07:58:11;2.67;;;2.47;;
10985;SDS011;5546;48.714;8.738;2022-08-03T08:00:39;3.25;;;2.30;;
10985;SDS011;5546;48.714;8.738;2022-08-03T08:03:05;4.05;;;2.50;;
10985;SDS011;5546;48.714;8.738;2022-08-03T08:05:31;2.53;;;1.98;;
10985;SDS011;5546;48.714;8.738;2022-08-03T08:07:57;3.08;;;1.98;;
10985;SDS011;5546;48.714;8.738;2022-08-03T08:10:23;3.63;;;1.98;;
10985;SDS011;5546;48.714;8.738;2022-08-03T08:12:49;2.80;;;2.15;;
10985;SDS011;5546;48.714;8.738;2022-08-03T08:15:15;2.50;;;1.50;;
10985;SDS011;5546;48.714;8.738;2022-08-03T08:17:45;2.13;;;1.77;;
10985;SDS011;5546;48.714;8.738;2022-08-03T08:20:11;1.92;;;1.73;;
10985;SDS011;5546;48.714;8.738;2022-08-03T08:22:40;2.05;;;1.95;;
10985;SDS011;5546;48.714;8.738;2022-08-03T08:25:06;2.70;;;1.83;;
10985;SDS011;5546;48.714;8.738;2022-08-03T08:27:32;2.10;;;1.90;;
10985;SDS011;5546;48.714;8.738;2022-08-03T08:29:57;2.53;;;2.28;;
10985;SDS011;5546;48.714;8.738;2022-08-03T08:32:23;1.70;;;1.60;;
10985;SDS011;5546;48.714;8.738;2022-08-03T08:34:48;2.85;;;1.80;;
10985;SDS011;5546;48.714;8.738;2022-08-03T08:37:14;2.63;;;1.83;;
10985;SDS011;5546;48.714;8.738;2022-08-03T08:39:40;1.98;;;1.80;;
10985;SDS011;5546;48.714;8.738;2022-08-03T08:42:05;2.15;;;1.90;;
10985;SDS011;5546;48.714;8.738;2022-08-03T08:44:31;2.00;;;1.73;;
10985;SDS011;5546;48.714;8.738;2022-08-03T08:46:57;2.38;;;2.08;;
10985;SDS011;5546;48.714;8.738;2022-08-03T08:49:26;2.95;;;1.90;;
10985;SDS011;5546;48.714;8.738;2022-08-03T08:51:53;2.20;;;2.00;;
10985;SDS011;5546;48.714;8.738;2022-08-03T08:54:20;1.67;;;1.58;;
10985;SDS011;5546;48.714;8.738;2022-08-03T08:56:50;2.85;;;1.80;;
10985;SDS011;5546;48.714;8.738;2022-08-03T08:59:17;1.60;;;1.50;;
10985;SDS011;5546;48.714;8.738;2022-08-03T09:01:43;1.90;;;1.70;;
10985;SDS011;5546;48.714;8.738;2022-08-03T09:04:09;2.17;;;1.95;;
10985;SDS011;5546;48.714;8.738;2022-08-03T09:06:35;1.90;;;1.70;;
10985;SDS011;5546;48.714;8.738;2022-08-03T09:09:00;2.00;;;1.73;;
10985;SDS011;5546;48.714;8.738;2022-08-03T09:11:26;15.63;;;2.00;;
10985;SDS011;5546;48.714;8.738;2022-08-03T09:13:51;1.83;;;1.67;;
10985;SDS011;5546;48.714;8.738;2022-08-03T09:16:18;2.30;;;1.90;;
10985;SDS011;5546;48.714;8.738;2022-08-03T09:18:47;2.58;;;1.60;;
10985;SDS011;5546;48.714;8.738;2022-08-03T09:21:18;2.10;;;1.70;;
10985;SDS011;5546;48.714;8.738;2022-08-03T09:23:53;2.13;;;1.90;;
10985;SDS011;5546;48.714;8.738;2022-08-03T09:26:21;3.90;;;1.70;;
10985;SDS011;5546;48.714;8.738;2022-08-03T09:28:52;1.77;;;1.67;;
10985;SDS011;5546;48.714;8.738;2022-08-03T09:31:28;3.45;;;1.50;;
10985;SDS011;5546;48.714;8.738;2022-08-03T09:34:05;4.25;;;2.17;;
10985;SDS011;5546;48.714;8.738;2022-08-03T09:36:44;1.80;;;1.60;;
10985;SDS011;5546;48.714;8.738;2022-08-03T09:41:48;2.10;;;1.70;;
10985;SDS011;5546;48.714;8.738;2022-08-03T09:44:36;1.92;;;1.77;;
10985;SDS011;5546;48.714;8.738;2022-08-03T09:47:04;1.60;;;1.50;;
10985;SDS011;5546;48.714;8.738;2022-08-03T09:49:30;1.70;;;1.60;;
10985;SDS011;5546;48.714;8.738;2022-08-03T09:51:59;2.28;;;1.70;;
10985;SDS011;5546;48.714;8.738;2022-08-03T09:54:27;3.38;;;1.77;;
10985;SDS011;5546;48.714;8.738;2022-08-03T09:56:53;1.48;;;1.38;;
10985;SDS011;5546;48.714;8.738;2022-08-03T09:59:23;2.92;;;1.70;;
10985;SDS011;5546;48.714;8.738;2022-08-03T10:01:50;1.90;;;1.70;;
10985;SDS011;5546;48.714;8.738;2022-08-03T10:04:15;2.20;;;1.80;;
10985;SDS011;5546;48.714;8.738;2022-08-03T10:06:44;2.22;;;2.03;;
10985;SDS011;5546;48.714;8.738;2022-08-03T10:09:25;1.98;;;1.70;;
10985;SDS011;5546;48.714;8.738;2022-08-03T10:11:50;3.50;;;2.20;;
10985;SDS011;5546;48.714;8.738;2022-08-03T10:14:17;2.08;;;1.98;;
10985;SDS011;5546;48.714;8.738;2022-08-03T10:16:43;2.33;;;1.95;;
10985;SDS011;5546;48.714;8.738;2022-08-03T10:19:09;2.40;;;1.80;;
10985;SDS011;5546;48.714;8.738;2022-08-03T10:21:36;2.33;;;2.10;;
10985;SDS011;5546;48.714;8.738;2022-08-03T10:24:05;2.10;;;1.65;;
10985;SDS011;5546;48.714;8.738;2022-08-03T10:26:33;2.00;;;1.90;;
10985;SDS011;5546;48.714;8.738;2022-08-03T10:29:02;2.88;;;1.90;;
10985;SDS011;5546;48.714;8.738;2022-08-03T10:31:34;2.05;;;1.80;;
10985;SDS011;5546;48.714;8.738;2022-08-03T10:34:04;2.88;;;1.85;;
10985;SDS011;5546;48.714;8.738;2022-08-03T10:36:35;3.58;;;1.60;;
10985;SDS011;5546;48.714;8.738;2022-08-03T10:39:02;2.55;;;1.95;;
10985;SDS011;5546;48.714;8.738;2022-08-03T10:41:31;2.20;;;2.00;;
10985;SDS011;5546;48.714;8.738;2022-08-03T10:44:06;2.38;;;1.60;;
10985;SDS011;5546;48.714;8.738;2022-08-03T10:46:34;2.53;;;1.63;;
10985;SDS011;5546;48.714;8.738;2022-08-03T10:49:02;1.98;;;1.88;;
10985;SDS011;5546;48.714;8.738;2022-08-03T10:51:29;2.63;;;1.90;;
10985;SDS011;5546;48.714;8.738;2022-08-03T10:53:56;2.20;;;1.90;;
10985;SDS011;5546;48.714;8.738;2022-08-03T10:59:19;1.90;;;1.80;;
10985;SDS011;5546;48.714;8.738;2022-08-03T11:02:10;3.67;;;1.85;;
10985;SDS011;5546;48.714;8.738;2022-08-03T11:04:38;1.80;;;1.70;;
10985;SDS011;5546;48.714;8.738;2022-08-03T11:07:20;4.75;;;2.00;;
10985;SDS011;5546;48.714;8.738;2022-08-03T11:09:47;3.95;;;2.00;;
10985;SDS011;5546;48.714;8.738;2022-08-03T11:12:21;2.00;;;1.80;;
10985;SDS011;5546;48.714;8.738;2022-08-03T11:14:48;2.38;;;1.70;;
10985;SDS011;5546;48.714;8.738;2022-08-03T11:17:13;2.22;;;1.70;;
10985;SDS011;5546;48.714;8.738;2022-08-03T11:19:43;3.90;;;2.10;;
10985;SDS011;5546;48.714;8.738;2022-08-03T11:22:16;2.28;;;1.90;;
10985;SDS011;5546;48.714;8.738;2022-08-03T11:35:09;3.15;;;2.00;;
10985;SDS011;5546;48.714;8.738;2022-08-03T11:37:36;3.70;;;2.55;;
10985;SDS011;5546;48.714;8.738;2022-08-03T11:43:04;2.10;;;1.90;;
10985;SDS011;5546;48.714;8.738;2022-08-03T11:45:32;3.28;;;1.90;;
10985;SDS011;5546;48.714;8.738;2022-08-03T11:47:59;6.50;;;2.00;;
10985;SDS011;5546;48.714;8.738;2022-08-03T11:50:36;3.17;;;1.80;;
10985;SDS011;5546;48.714;8.738;2022-08-03T11:53:02;3.38;;;1.90;;
10985;SDS011;5546;48.714;8.738;2022-08-03T11:55:29;2.47;;;2.00;;
10985;SDS011;5546;48.714;8.738;2022-08-03T11:57:57;3.45;;;2.05;;
10985;SDS011;5546;48.714;8.738;2022-08-03T12:00:29;2.28;;;1.95;;
10985;SDS011;5546;48.714;8.738;2022-08-03T12:02:57;3.05;;;1.73;;
10985;SDS011;5546;48.714;8.738;2022-08-03T12:05:33;3.20;;;2.03;;
10985;SDS011;5546;48.714;8.738;2022-08-03T12:08:00;2.97;;;2.15;;
10985;SDS011;5546;48.714;8.738;2022-08-03T12:10:27;2.38;;;1.70;;
10985;SDS011;5546;48.714;8.738;2022-08-03T12:12:54;2.17;;;1.98;;
10985;SDS011;5546;48.714;8.738;2022-08-03T12:15:25;3.05;;;1.90;;
10985;SDS011;5546;48.714;8.738;2022-08-03T12:17:56;2.85;;;2.10;;
10985;SDS011;5546;48.714;8.738;2022-08-03T12:20:23;2.08;;;1.98;;
10985;SDS011;5546;48.714;8.738;2022-08-03T12:22:50;2.20;;;1.90;;
10985;SDS011;5546;48.714;8.738;2022-08-03T12:25:25;4.15;;;1.95;;
10985;SDS011;5546;48.714;8.738;2022-08-03T12:27:52;2.22;;;2.03;;
10985;SDS011;5546;48.714;8.738;2022-08-03T12:30:18;4.38;;;1.90;;
10985;SDS011;5546;48.714;8.738;2022-08-03T12:32:44;2.35;;;2.15;;
10985;SDS011;5546;48.714;8.738;2022-08-03T12:35:20;2.35;;;1.98;;
10985;SDS011;5546;48.714;8.738;2022-08-03T12:37:47;2.40;;;2.00;;
10985;SDS011;5546;48.714;8.738;2022-08-03T12:40:13;2.20;;;2.00;;
10985;SDS011;5546;48.714;8.738;2022-08-03T12:42:40;2.13;;;1.90;;
10985;SDS011;5546;48.714;8.738;2022-08-03T12:45:18;2.20;;;2.00;;
10985;SDS011;5546;48.714;8.738;2022-08-03T12:47:58;2.72;;;1.92;;
10985;SDS011;5546;48.714;8.738;2022-08-03T12:52:55;1.90;;;1.80;;
10985;SDS011;5546;48.714;8.738;2022-08-03T12:55:21;2.65;;;2.17;;
10985;SDS011;5546;48.714;8.738;2022-08-03T12:57:48;1.83;;;1.73;;
10985;SDS011;5546;48.714;8.738;2022-08-03T13:00:14;2.83;;;2.10;;
10985;SDS011;5546;48.714;8.738;2022-08-03T13:02:41;4.70;;;2.00;;
10985;SDS011;5546;48.714;8.738;2022-08-03T13:05:08;1.88;;;1.77;;
10985;SDS011;5546;48.714;8.738;2022-08-03T13:07:42;3.05;;;1.92;;
10985;SDS011;5546;48.714;8.738;2022-08-03T13:10:09;3.55;;;1.90;;
10985;SDS011;5546;48.714;8.738;2022-08-03T13:12:48;4.25;;;1.73;;
10985;SDS011;5546;48.714;8.738;2022-08-03T13:15:14;4.10;;;1.90;;
10985;SDS011;5546;48.714;8.738;2022-08-03T13:17:40;2.47;;;2.13;;
10985;SDS011;5546;48.714;8.738;2022-08-03T13:20:06;3.53;;;2.20;;
10985;SDS011;5546;48.714;8.738;2022-08-03T13:22:32;3.53;;;2.10;;
10985;SDS011;5546;48.714;8.738;2022-08-03T13:24:58;2.05;;;1.80;;
10985;SDS011;5546;48.714;8.738;2022-08-03T13:27:28;2.97;;;2.10;;
10985;SDS011;5546;48.714;8.738;2022-08-03T13:29:55;2.10;;;1.90;;
10985;SDS011;5546;48.714;8.738;2022-08-03T13:32:21;2.55;;;1.90;;
10985;SDS011;5546;48.714;8.738;2022-08-03T13:34:47;2.40;;;2.20;;
10985;SDS011;5546;48.714;8.738;2022-08-03T13:37:12;3.22;;;2.08;;
10985;SDS011;5546;48.714;8.738;2022-08-03T13:39:38;2.90;;;2.00;;
10985;SDS011;5546;48.714;8.738;2022-08-03T13:42:04;2.67;;;1.98;;
10985;SDS011;5546;48.714;8.738;2022-08-03T13:44:30;2.25;;;2.03;;
10985;SDS011;5546;48.714;8.738;2022-08-03T13:46:56;2.17;;;1.95;;
10985;SDS011;5546;48.714;8.738;2022-08-03T13:49:24;6.35;;;1.85;;
10985;SDS011;5546;48.714;8.738;2022-08-03T13:51:53;2.88;;;2.00;;
10985;SDS011;5546;48.714;8.738;2022-08-03T13:54:20;3.45;;;1.88;;
10985;SDS011;5546;48.714;8.738;2022-08-03T13:56:45;1.80;;;1.70;;
10985;SDS011;5546;48.714;8.738;2022-08-03T13:59:17;3.78;;;2.53;;
10985;SDS011;5546;48.714;8.738;2022-08-03T14:01:44;2.75;;;2.00;;
10985;SDS011;5546;48.714;8.738;2022-08-03T14:04:10;5.28;;;1.77;;
10985;SDS011;5546;48.714;8.738;2022-08-03T14:06:35;2.92;;;1.83;;
10985;SDS011;5546;48.714;8.738;2022-08-03T14:09:01;2.88;;;2.15;;
10985;SDS011;5546;48.714;8.738;2022-08-03T14:11:27;2.13;;;2.00;;
10985;SDS011;5546;48.714;8.738;2022-08-03T14:13:52;2.10;;;1.90;;
10985;SDS011;5546;48.714;8.738;2022-08-03T14:16:18;2.03;;;1.73;;
10985;SDS011;5546;48.714;8.738;2022-08-03T14:18:43;2.00;;;1.90;;
10985;SDS011;5546;48.714;8.738;2022-08-03T14:21:09;2.20;;;2.00;;
10985;SDS011;5546;48.714;8.738;2022-08-03T14:23:37;3.40;;;1.90;;
10985;SDS011;5546;48.714;8.738;2022-08-03T14:26:03;3.67;;;1.95;;
10985;SDS011;5546;48.714;8.738;2022-08-03T14:28:29;2.05;;;1.90;;
10985;SDS011;5546;48.714;8.738;2022-08-03T14:30:55;2.35;;;2.03;;
10985;SDS011;5546;48.714;8.738;2022-08-03T14:33:21;2.15;;;1.90;;
10985;SDS011;5546;48.714;8.738;2022-08-03T14:35:46;3.65;;;2.00;;
10985;SDS011;5546;48.714;8.738;2022-08-03T14:38:13;1.90;;;1.80;;
10985;SDS011;5546;48.714;8.738;2022-08-03T14:40:39;2.15;;;1.95;;
10985;SDS011;5546;48.714;8.738;2022-08-03T14:43:05;1.90;;;1.80;;
10985;SDS011;5546;48.714;8.738;2022-08-03T14:45:30;2.83;;;1.92;;
10985;SDS011;5546;48.714;8.738;2022-08-03T14:47:56;4.70;;;1.98;;
10985;SDS011;5546;48.714;8.738;2022-08-03T14:50:24;4.53;;;2.10;;
10985;SDS011;5546;48.714;8.738;2022-08-03T14:52:50;2.42;;;2.10;;
10985;SDS011;5546;48.714;8.738;2022-08-03T14:55:16;2.97;;;1.90;;
10985;SDS011;5546;48.714;8.738;2022-08-03T14:57:41;3.88;;;2.00;;
10985;SDS011;5546;48.714;8.738;2022-08-03T15:00:07;2.65;;;1.70;;
10985;SDS011;5546;48.714;8.738;2022-08-03T15:02:33;3.67;;;2.00;;
10985;SDS011;5546;48.714;8.738;2022-08-03T15:04:59;3.22;;;1.83;;
10985;SDS011;5546;48.714;8.738;2022-08-03T15:07:24;5.65;;;2.20;;
10985;SDS011;5546;48.714;8.738;2022-08-03T15:09:50;4.22;;;1.90;;
10985;SDS011;5546;48.714;8.738;2022-08-03T15:12:16;2.10;;;1.83;;
10985;SDS011;5546;48.714;8.738;2022-08-03T15:14:42;3.65;;;2.10;;
10985;SDS011;5546;48.714;8.738;2022-08-03T15:17:07;5.30;;;1.90;;
10985;SDS011;5546;48.714;8.738;2022-08-03T15:19:33;2.30;;;2.10;;
10985;SDS011;5546;48.714;8.738;2022-08-03T15:21:59;3.85;;;1.77;;
10985;SDS011;5546;48.714;8.738;2022-08-03T15:24:24;3.38;;;1.83;;
10985;SDS011;5546;48.714;8.738;2022-08-03T15:26:50;1.92;;;1.73;;
10985;SDS011;5546;48.714;8.738;2022-08-03T15:29:17;3.92;;;2.00;;
10985;SDS011;5546;48.714;8.738;2022-08-03T15:31:43;2.67;;;2.15;;